Sanborn, Nebraska
Current Conditions -  °F | °C
As of 10:55 AM on Thursday 30 Oct 2014 (Local Time) from K2V5 Reporting Station
Clear Clear  
Wind Chill: 63°   Ceiling: Unl
Heat Index: 63°   Visibility: 10mi
Dew Point: 29°   Wind: 10mph
Humidity: 28%   Direction: 320°NW
Pressure: 30.33"   Gusts: NA
Location:  40.1596°N, 101.947°W
Report Text: K2V5 301655Z AUTO 32009KT 10SM CLR 17/M02 A3033 RMK AO2 T01711016
Loading
Personal Weather Stations






























Interactive Weather Map
Tropical Storm Tracking
New forecast layout! Learn more

10-Day Weather Forecast

Advertisements
Track Severe Weather on mobile